Time;durP1;ratioP1;P1;durP2;ratioP2;P2;SDS_P1;SDS_P2;PMS_P1;PMS_P2;Temp;Humidity;BMP_temperature;BMP_pressure;BME280_temperature;BME280_humidity;BME280_pressure;Samples;Min_cycle;Max_cycle;Signal;HPM_P1;HPM_P2
2023/04/26 00:00:32;;;;;;;6.70;3.10;;;;;;;11.39;58.09;99363.02;108850;1262;60370;-69
2023/04/26 00:02:59;;;;;;;5.60;3.30;;;;;;;11.40;57.99;99361.67;108836;1262;65165;-69
2023/04/26 00:05:27;;;;;;;9.70;3.60;;;;;;;11.42;57.95;99359.59;108732;1262;58110;-69
2023/04/26 00:07:54;;;;;;;5.20;3.40;;;;;;;11.44;58.03;99360.63;108775;1262;58218;-69
2023/04/26 00:10:21;;;;;;;4.30;3.10;;;;;;;11.45;57.93;99358.66;108753;1262;66997;-69
2023/04/26 00:12:48;;;;;;;5.50;3.10;;;;;;;11.48;57.98;99364.77;108795;1262;59231;-69
2023/04/26 00:15:15;;;;;;;5.10;3.10;;;;;;;11.50;58.11;99364.33;108837;1261;66386;-69
2023/04/26 00:17:42;;;;;;;7.20;3.10;;;;;;;11.50;58.28;99363.73;108773;1262;58280;-69
2023/04/26 00:20:11;;;;;;;6.60;3.10;;;;;;;11.51;58.24;99368.47;108834;1261;58251;-71
2023/04/26 00:22:39;;;;;;;5.60;3.40;;;;;;;11.51;58.32;99369.66;108840;1262;65768;-69
2023/04/26 00:25:07;;;;;;;8.40;3.50;;;;;;;11.52;58.35;99370.10;108757;1262;60574;-72
2023/04/26 00:27:34;;;;;;;6.10;3.30;;;;;;;11.51;58.36;99368.87;108819;1262;66113;-69
2023/04/26 00:30:01;;;;;;;6.10;3.40;;;;;;;11.52;58.38;99370.44;108840;1262;58251;-70
2023/04/26 00:32:29;;;;;;;6.40;3.10;;;;;;;11.51;58.45;99370.48;108768;1262;58487;-69
2023/04/26 00:34:58;;;;;;;6.60;3.50;;;;;;;11.52;58.46;99368.80;108832;1263;66300;-69
2023/04/26 00:37:28;;;;;;;13.00;3.30;;;;;;;11.53;58.68;99368.73;108716;1263;60359;-69
2023/04/26 00:39:57;;;;;;;4.50;3.10;;;;;;;11.53;58.69;99363.77;108690;1264;66150;-70
2023/04/26 00:42:27;;;;;;;6.10;3.40;;;;;;;11.54;58.83;99364.32;108670;1269;58179;-70
2023/04/26 00:54:15;;;;;;;7.10;3.20;;;;;;;11.59;59.07;99358.29;108848;1264;58180;-69
2023/04/26 00:56:45;;;;;;;4.70;2.70;;;;;;;11.61;58.95;99358.37;108581;1264;65839;-69
2023/04/26 00:59:14;;;;;;;6.30;3.20;;;;;;;11.61;58.94;99357.17;108571;1265;58182;-74
2023/04/26 01:01:44;;;;;;;4.50;2.50;;;;;;;11.67;58.80;99357.61;108709;1269;58067;-70
2023/04/26 01:04:15;;;;;;;5.30;3.20;;;;;;;11.69;58.55;99352.33;108702;1263;66232;-70
2023/04/26 01:06:45;;;;;;;4.80;3.00;;;;;;;11.70;58.47;99353.91;108685;1264;60564;-69
2023/04/26 01:09:15;;;;;;;4.80;3.00;;;;;;;11.72;58.46;99351.08;108533;1265;65832;-69
2023/04/26 01:11:46;;;;;;;6.80;2.70;;;;;;;11.73;58.47;99348.73;108735;1264;58138;-69
2023/04/26 01:14:15;;;;;;;4.50;2.80;;;;;;;11.73;58.25;99345.50;108627;1263;58215;-69
2023/04/26 01:16:45;;;;;;;7.20;2.90;;;;;;;11.74;58.08;99344.48;108703;1264;67312;-69
2023/04/26 01:19:17;;;;;;;6.70;2.80;;;;;;;11.76;57.72;99342.34;108747;1264;60274;-68
2023/04/26 01:21:46;;;;;;;4.30;2.70;;;;;;;11.79;57.62;99338.45;108685;1263;67097;-68
2023/04/26 01:24:17;;;;;;;5.80;3.00;;;;;;;11.81;57.46;99335.56;108701;1264;58133;-71
2023/04/26 01:26:47;;;;;;;9.20;3.10;;;;;;;11.84;57.29;99334.42;108714;1264;58090;-68
2023/04/26 01:29:19;;;;;;;5.20;2.80;;;;;;;11.85;57.12;99332.34;108696;1264;67226;-69
2023/04/26 01:31:49;;;;;;;5.50;2.80;;;;;;;11.87;57.10;99330.92;108694;1264;59369;-69
2023/04/26 01:41:59;;;;;;;4.70;2.90;;;;;;;11.96;56.48;99325.63;102550;1293;600648;-69
2023/04/26 01:44:26;;;;;;;6.10;3.00;;;;;;;11.96;56.32;99324.40;104646;1272;59452;-70
2023/04/26 01:46:53;;;;;;;4.30;2.60;;;;;;;11.90;56.26;99328.15;104575;1266;59362;-68
2023/04/26 01:49:19;;;;;;;6.10;2.90;;;;;;;11.91;56.11;99325.94;104823;1266;66121;-69
2023/04/26 01:51:46;;;;;;;4.80;2.70;;;;;;;11.94;56.15;99324.60;104744;1267;61104;-70
2023/04/26 01:54:13;;;;;;;5.00;2.70;;;;;;;11.94;56.02;99323.90;104776;1266;66649;-69
2023/04/26 01:56:40;;;;;;;6.90;2.80;;;;;;;11.94;55.94;99324.20;104758;1269;152402;-69
2023/04/26 01:59:07;;;;;;;4.80;2.80;;;;;;;11.95;55.82;99323.58;104791;1265;59135;-69
2023/04/26 02:01:33;;;;;;;4.90;2.60;;;;;;;11.96;55.75;99325.39;104974;1265;65930;-66
2023/04/26 02:04:01;;;;;;;6.60;2.70;;;;;;;11.96;55.75;99321.86;104816;1264;61088;-70
2023/04/26 02:06:28;;;;;;;5.40;2.90;;;;;;;11.97;55.74;99323.77;105030;1266;66953;-70
2023/04/26 02:08:55;;;;;;;6.30;3.00;;;;;;;11.97;55.76;99322.77;105041;1266;59745;-71
2023/04/26 02:11:23;;;;;;;5.80;2.90;;;;;;;11.98;55.74;99322.75;105004;1269;59654;-68
2023/04/26 02:13:50;;;;;;;6.10;3.10;;;;;;;11.98;55.88;99321.70;104778;1264;67068;-69
2023/04/26 02:16:20;;;;;;;4.30;3.20;;;;;;;11.98;55.79;99316.86;104891;1266;68964;-69
2023/04/26 02:18:48;;;;;;;7.10;3.60;;;;;;;11.99;55.79;99318.23;105073;1267;66281;-68
2023/04/26 02:21:17;;;;;;;4.90;3.10;;;;;;;12.00;55.74;99320.44;104871;1264;60590;-69
2023/04/26 02:23:44;;;;;;;6.80;3.20;;;;;;;11.97;55.78;99319.10;104781;1267;59631;-71
2023/04/26 02:26:12;;;;;;;3.70;3.30;;;;;;;11.99;55.66;99315.25;104727;1265;66948;-68
2023/04/26 02:28:42;;;;;;;9.10;3.60;;;;;;;12.00;55.55;99315.15;104877;1265;60773;-69
2023/04/26 02:31:09;;;;;;;7.80;3.50;;;;;;;12.02;55.49;99314.73;104774;1267;66558;-70
2023/04/26 02:33:37;;;;;;;6.20;3.20;;;;;;;11.99;55.50;99316.41;104801;1272;59666;-68
2023/04/26 02:36:04;;;;;;;10.00;3.80;;;;;;;12.01;55.31;99319.25;104752;1267;59701;-70
2023/04/26 02:38:34;;;;;;;4.20;3.10;;;;;;;12.01;55.39;99317.63;104900;1267;65738;-68
2023/04/26 02:41:02;;;;;;;7.70;3.20;;;;;;;11.99;55.50;99312.20;104767;1267;60115;-70
2023/04/26 02:43:29;;;;;;;5.90;3.70;;;;;;;11.94;55.62;99310.38;104755;1267;66223;-70
2023/04/26 02:46:00;;;;;;;5.70;3.50;;;;;;;11.96;55.53;99310.02;104749;1267;59704;-70
2023/04/26 02:48:28;;;;;;;10.40;4.30;;;;;;;12.00;55.46;99310.35;104837;1267;59563;-70
2023/04/26 02:50:56;;;;;;;10.30;4.70;;;;;;;12.00;55.56;99318.16;104686;1265;65992;-70
2023/04/26 02:53:23;;;;;;;11.60;4.60;;;;;;;11.98;55.62;99321.45;104795;1272;60956;-70
2023/04/26 02:55:50;;;;;;;7.70;5.40;;;;;;;11.97;55.68;99320.36;104744;1267;66630;-69
2023/04/26 02:58:17;;;;;;;8.40;4.70;;;;;;;11.95;55.74;99319.47;104878;1266;59698;-69
2023/04/26 03:00:47;;;;;;;10.00;4.90;;;;;;;11.94;55.80;99316.45;104899;1267;59563;-69
2023/04/26 03:03:15;;;;;;;11.00;5.00;;;;;;;11.93;55.92;99314.38;104723;1270;65704;-70
2023/04/26 03:05:43;;;;;;;8.20;5.00;;;;;;;11.92;56.03;99317.88;104902;1267;61044;-69
2023/04/26 03:08:11;;;;;;;7.80;4.70;;;;;;;11.91;56.07;99319.79;104788;1267;66754;-69
2023/04/26 03:10:38;;;;;;;7.80;4.80;;;;;;;11.90;56.02;99324.65;104732;1272;59577;-70
2023/04/26 03:13:05;;;;;;;9.70;5.50;;;;;;;11.89;56.07;99323.30;104869;1268;59587;-69
2023/04/26 03:15:31;;;;;;;7.90;4.80;;;;;;;11.89;56.06;99319.23;104604;1270;66738;-71
2023/04/26 03:17:59;;;;;;;9.00;5.20;;;;;;;11.91;55.96;99321.54;104758;1264;60945;-68
2023/04/26 03:20:26;;;;;;;8.40;5.40;;;;;;;11.92;55.96;99322.31;104832;1266;66503;-68
2023/04/26 03:22:53;;;;;;;11.40;6.30;;;;;;;11.94;55.81;99322.28;104691;1265;59666;-68
2023/04/26 03:25:20;;;;;;;10.90;7.00;;;;;;;11.96;55.82;99324.70;104741;1269;59522;-69
2023/04/26 03:27:47;;;;;;;12.90;9.50;;;;;;;11.96;55.81;99323.59;104751;1272;66801;-69
2023/04/26 03:30:14;;;;;;;14.00;11.30;;;;;;;11.98;55.86;99325.37;104518;1267;59890;-68
2023/04/26 03:32:43;;;;;;;14.60;10.50;;;;;;;12.01;55.89;99327.16;104853;1267;66412;-69
2023/04/26 03:35:10;;;;;;;14.20;10.10;;;;;;;12.04;56.00;99327.60;104944;1267;59766;-69
2023/04/26 03:37:38;;;;;;;14.80;9.40;;;;;;;12.07;56.09;99327.00;104795;1270;59578;-70
2023/04/26 03:40:08;;;;;;;15.60;8.30;;;;;;;12.10;56.15;99327.02;104729;1265;65828;-69
2023/04/26 03:42:36;;;;;;;14.00;7.10;;;;;;;12.12;56.15;99328.05;104604;1272;60356;-70
2023/04/26 03:45:04;;;;;;;13.00;7.40;;;;;;;12.12;56.31;99327.45;104667;1272;66529;-70
2023/04/26 03:47:31;;;;;;;11.90;7.00;;;;;;;12.13;56.36;99328.67;104783;1265;60807;-72
2023/04/26 03:49:58;;;;;;;13.60;6.00;;;;;;;12.13;56.34;99329.02;104753;1267;59714;-68
2023/04/26 03:52:24;;;;;;;12.60;6.50;;;;;;;12.14;56.38;99333.31;104810;1270;66581;-69
2023/04/26 03:54:52;;;;;;;13.90;7.10;;;;;;;12.15;56.30;99335.11;104757;1264;60798;-68
2023/04/26 03:57:18;;;;;;;11.30;6.00;;;;;;;12.16;56.50;99333.63;104752;1267;66263;-68
2023/04/26 03:59:45;;;;;;;12.40;6.20;;;;;;;12.16;56.49;99335.71;105778;1259;59669;-69
2023/04/26 04:02:12;;;;;;;12.80;6.20;;;;;;;12.16;56.50;99341.92;105678;1259;59628;-69
2023/04/26 04:04:39;;;;;;;10.30;5.70;;;;;;;12.14;56.59;99341.39;105375;1254;65700;-69
2023/04/26 04:07:07;;;;;;;15.60;6.80;;;;;;;12.13;57.00;99342.08;105525;1257;61022;-69
2023/04/26 04:09:34;;;;;;;10.10;6.00;;;;;;;12.10;57.50;99343.96;105492;1255;65483;-68
2023/04/26 04:12:02;;;;;;;13.00;7.00;;;;;;;12.05;57.97;99344.59;105549;1255;59668;-69
2023/04/26 04:14:31;;;;;;;13.50;7.20;;;;;;;11.99;58.21;99342.40;105546;1261;59520;-70
2023/04/26 04:16:58;;;;;;;12.50;7.50;;;;;;;11.94;58.54;99340.44;105945;1254;66510;-70
2023/04/26 04:19:26;;;;;;;15.50;8.20;;;;;;;11.92;58.91;99341.36;105498;1254;60849;-70
2023/04/26 04:21:53;;;;;;;12.00;7.50;;;;;;;11.92;59.22;99341.20;105507;1262;66623;-70
2023/04/26 04:24:21;;;;;;;11.30;6.10;;;;;;;11.90;59.38;99341.02;105507;1257;59665;-69
2023/04/26 04:26:48;;;;;;;12.30;6.40;;;;;;;11.90;59.51;99342.95;105348;1259;59622;-69
2023/04/26 04:29:15;;;;;;;17.20;7.40;;;;;;;11.90;59.73;99344.70;105505;1254;67073;-73
2023/04/26 04:31:42;;;;;;;12.70;6.50;;;;;;;11.93;59.95;99348.34;105757;1257;60924;-69
2023/04/26 04:34:09;;;;;;;9.30;6.00;;;;;;;11.97;60.13;99347.02;105199;1257;66541;-69
2023/04/26 04:36:39;;;;;;;13.70;6.50;;;;;;;12.00;60.13;99348.49;105571;1255;64663;-70
2023/04/26 04:39:12;;;;;;;14.40;6.70;;;;;;;12.03;60.11;99347.45;105646;1260;60101;-69
2023/04/26 04:41:46;;;;;;;11.30;6.70;;;;;;;12.08;60.20;99345.03;105717;1260;66590;-68
2023/04/26 04:44:17;;;;;;;14.10;7.20;;;;;;;12.15;60.37;99346.13;105482;1254;61276;-70
2023/04/26 04:46:44;;;;;;;14.80;7.80;;;;;;;12.20;60.29;99346.56;105651;1257;66703;-68
2023/04/26 04:49:13;;;;;;;13.80;7.60;;;;;;;12.24;60.02;99349.69;105520;1260;59734;-74
2023/04/26 04:51:41;;;;;;;15.30;8.30;;;;;;;12.27;59.95;99350.08;105705;1255;59554;-68
2023/04/26 04:54:11;;;;;;;18.50;8.90;;;;;;;12.31;60.02;99346.55;105719;1260;66854;-69
2023/04/26 04:56:44;;;;;;;16.80;9.50;;;;;;;12.37;59.93;99344.70;105525;1258;61022;-72
2023/04/26 04:59:16;;;;;;;19.90;9.50;;;;;;;12.43;59.62;99340.02;105617;1262;63706;-69
2023/04/26 05:01:43;;;;;;;18.40;9.80;;;;;;;12.49;59.44;99342.90;105517;1257;60730;-69
2023/04/26 05:04:13;;;;;;;20.10;10.20;;;;;;;12.52;59.25;99341.45;105758;1254;59653;-72
2023/04/26 05:06:40;;;;;;;19.40;9.70;;;;;;;12.55;59.13;99344.14;105503;1255;67269;-70
2023/04/26 05:09:10;;;;;;;18.70;9.40;;;;;;;12.60;59.20;99346.48;105905;1260;61150;-69
2023/04/26 05:11:37;;;;;;;13.90;8.70;;;;;;;12.68;59.16;99344.78;105633;1257;66886;-68
2023/04/26 05:14:05;;;;;;;14.70;8.70;;;;;;;12.75;59.12;99339.86;105653;1263;65013;-70
2023/04/26 05:16:34;;;;;;;13.40;6.60;;;;;;;12.83;58.96;99342.02;105705;1263;59603;-70
2023/04/26 05:19:02;;;;;;;13.20;5.40;;;;;;;12.90;58.57;99341.44;105580;1260;66575;-69
2023/04/26 05:21:30;;;;;;;8.40;4.40;;;;;;;12.96;58.28;99340.83;105513;1254;60965;-69
2023/04/26 05:23:57;;;;;;;7.70;4.00;;;;;;;13.00;57.92;99337.35;105438;1259;66333;-70
2023/04/26 05:26:25;;;;;;;8.80;4.20;;;;;;;13.01;57.65;99338.27;105706;1257;59702;-70
2023/04/26 05:29:14;;;;;;;8.20;4.10;;;;;;;13.03;57.71;99337.54;105545;1264;59663;-69
2023/04/26 05:32:00;;;;;;;8.80;4.20;;;;;;;13.07;57.84;99339.99;105543;1260;67052;-70
2023/04/26 05:34:40;;;;;;;7.40;3.90;;;;;;;13.11;57.78;99337.36;105564;1260;60824;-69
2023/04/26 05:37:10;;;;;;;8.50;4.40;;;;;;;13.14;57.45;99334.37;105556;1259;66521;-69
2023/04/26 05:39:37;;;;;;;7.20;3.90;;;;;;;13.15;57.40;99337.09;105438;1260;59669;-72
2023/04/26 05:42:06;;;;;;;9.00;4.00;;;;;;;13.17;57.37;99333.35;105410;1263;59688;-71
2023/04/26 05:44:33;;;;;;;7.70;3.90;;;;;;;13.23;57.64;99331.89;105693;1257;67089;-70
2023/04/26 05:47:00;;;;;;;12.90;4.40;;;;;;;13.29;57.46;99334.11;105669;1260;60893;-69
2023/04/26 05:49:27;;;;;;;10.80;4.20;;;;;;;13.33;57.33;99333.46;105423;1260;66590;-70
2023/04/26 05:51:54;;;;;;;8.40;4.10;;;;;;;13.37;57.34;99333.27;105538;1260;60571;-69
2023/04/26 05:54:23;;;;;;;10.20;4.30;;;;;;;13.43;57.59;99335.80;105445;1260;60395;-70
2023/04/26 05:56:51;;;;;;;9.70;4.10;;;;;;;13.51;57.44;99333.87;105450;1254;67679;-72
2023/04/26 05:59:18;;;;;;;7.40;4.20;;;;;;;13.56;57.27;99330.13;105641;1260;61158;-72
2023/04/26 06:01:45;;;;;;;8.60;4.00;;;;;;;13.63;57.23;99329.19;105611;1260;65278;-71
2023/04/26 06:04:12;;;;;;;11.20;3.90;;;;;;;13.68;57.13;99326.98;105925;1260;60460;-71
2023/04/26 06:06:55;;;;;;;10.30;4.30;;;;;;;13.73;56.98;99330.17;105900;1260;60374;-74
2023/04/26 06:09:22;;;;;;;7.30;3.90;;;;;;;13.79;56.91;99331.82;105664;1260;66643;-74
2023/04/26 06:11:49;;;;;;;10.10;4.10;;;;;;;13.90;56.84;99323.02;105837;1262;60433;-72
2023/04/26 06:14:16;;;;;;;7.00;4.00;;;;;;;14.03;56.53;99328.27;106171;1259;66401;-74
2023/04/26 06:16:57;;;;;;;7.30;4.10;;;;;;;14.14;55.99;99332.92;105801;1260;60488;-69
2023/04/26 06:19:26;;;;;;;9.70;4.70;;;;;;;14.26;56.00;99334.58;105765;1258;60345;-72
2023/04/26 06:21:54;;;;;;;7.50;4.00;;;;;;;14.39;55.69;99334.41;105748;1254;67553;-70
2023/04/26 06:24:22;;;;;;;9.80;4.60;;;;;;;14.47;55.35;99332.08;105786;1262;60559;-72
2023/04/26 06:26:49;;;;;;;8.90;4.20;;;;;;;14.55;54.93;99335.14;105546;1260;66639;-72
2023/04/26 06:29:16;;;;;;;11.10;5.10;;;;;;;14.60;54.81;99336.85;105862;1256;60484;-71
2023/04/26 06:31:43;;;;;;;13.80;7.50;;;;;;;14.66;54.87;99337.71;105571;1254;60504;-73
2023/04/26 06:34:11;;;;;;;19.00;9.40;;;;;;;14.76;54.99;99337.00;105902;1254;67477;-71
2023/04/26 06:36:38;;;;;;;15.90;7.70;;;;;;;14.86;54.82;99338.45;105752;1260;60992;-73
2023/04/26 06:39:05;;;;;;;11.30;5.60;;;;;;;14.95;54.45;99340.83;105985;1254;66338;-73
2023/04/26 06:41:32;;;;;;;8.40;5.50;;;;;;;15.01;54.11;99337.33;105948;1261;60645;-71
2023/04/26 06:43:59;;;;;;;10.90;6.90;;;;;;;15.04;53.74;99335.71;106024;1263;60409;-70
2023/04/26 06:46:29;;;;;;;19.90;9.20;;;;;;;15.05;53.39;99333.52;106223;1258;67797;-71
2023/04/26 06:48:56;;;;;;;13.90;7.70;;;;;;;15.06;53.34;99332.52;105425;1261;60457;-71
2023/04/26 06:51:24;;;;;;;13.20;7.00;;;;;;;15.08;53.19;99331.11;105918;1260;66327;-69
2023/04/26 06:53:51;;;;;;;15.50;6.90;;;;;;;15.13;53.16;99331.80;105428;1255;60511;-71
2023/04/26 06:56:18;;;;;;;12.20;5.40;;;;;;;15.23;53.10;99335.09;105825;1258;60767;-75
2023/04/26 06:59:04;;;;;;;8.60;4.50;;;;;;;15.35;52.14;99335.71;105692;1254;68204;-70
2023/04/26 07:01:33;;;;;;;5.50;3.20;;;;;;;15.41;51.35;99341.88;105708;1258;61144;-75
2023/04/26 07:04:03;;;;;;;4.90;3.20;;;;;;;15.45;50.84;99341.23;105902;1257;65161;-71
2023/04/26 07:06:30;;;;;;;4.30;3.20;;;;;;;15.50;50.99;99339.13;105786;1255;60420;-68
2023/04/26 07:08:58;;;;;;;8.40;3.20;;;;;;;15.57;50.76;99341.59;105694;1258;60335;-71
2023/04/26 07:11:27;;;;;;;6.80;3.40;;;;;;;15.71;50.83;99346.23;105643;1254;66497;-71
2023/04/26 07:13:55;;;;;;;8.80;3.40;;;;;;;15.87;51.00;99344.85;105739;1254;60764;-71
2023/04/26 07:16:22;;;;;;;6.50;3.20;;;;;;;16.08;50.88;99339.06;105851;1255;66779;-72
2023/04/26 07:18:51;;;;;;;6.70;3.60;;;;;;;16.29;50.11;99340.73;105654;1259;60434;-71
2023/04/26 07:21:18;;;;;;;8.30;3.70;;;;;;;16.45;48.77;99335.73;105669;1259;60386;-70
2023/04/26 07:23:45;;;;;;;5.30;3.40;;;;;;;16.54;48.70;99336.23;105929;1254;66465;-69
2023/04/26 07:26:12;;;;;;;6.80;4.20;;;;;;;16.65;48.50;99336.23;105576;1260;60606;-70
2023/04/26 07:29:09;;;;;;;9.40;4.90;;;;;;;16.70;48.10;99340.48;105711;1254;66679;-70
2023/04/26 07:31:39;;;;;;;9.10;4.10;;;;;;;16.68;47.83;99346.58;105617;1260;60517;-69
2023/04/26 07:34:06;;;;;;;5.60;3.10;;;;;;;16.62;47.33;99344.17;105539;1267;59250;-73
2023/04/26 07:36:33;;;;;;;6.20;3.40;;;;;;;16.58;46.86;99346.03;105663;1256;67583;-71
2023/04/26 07:39:00;;;;;;;5.50;2.60;;;;;;;16.55;46.74;99351.05;105674;1259;60948;-71
2023/04/26 07:41:27;;;;;;;7.80;2.80;;;;;;;16.52;46.76;99345.80;105561;1260;66468;-71
2023/04/26 07:43:54;;;;;;;4.60;2.50;;;;;;;16.53;46.83;99346.59;105425;1254;60558;-72
2023/04/26 07:46:21;;;;;;;4.00;2.40;;;;;;;16.60;46.10;99346.80;105672;1257;60561;-72
2023/04/26 07:48:48;;;;;;;6.40;2.90;;;;;;;16.67;45.00;99350.98;105604;1254;66282;-72
2023/04/26 07:51:15;;;;;;;4.90;1.90;;;;;;;16.74;44.61;99350.15;105594;1254;60835;-72
2023/04/26 07:53:42;;;;;;;10.20;3.10;;;;;;;16.80;43.55;99347.98;105648;1260;65523;-71
2023/04/26 07:56:09;;;;;;;6.30;2.60;;;;;;;16.80;42.67;99351.64;105685;1255;60543;-70
2023/04/26 07:58:37;;;;;;;8.60;2.40;;;;;;;16.78;42.53;99348.81;105904;1260;60591;-71
2023/04/26 08:01:07;;;;;;;6.50;2.40;;;;;;;16.76;41.98;99345.88;105547;1260;67497;-71
2023/04/26 08:03:36;;;;;;;6.20;2.20;;;;;;;16.73;41.54;99349.42;105737;1260;60442;-73
2023/04/26 08:06:07;;;;;;;6.90;2.10;;;;;;;16.70;41.41;99349.54;105930;1254;63853;-70
2023/04/26 08:08:41;;;;;;;6.00;2.20;;;;;;;16.67;41.44;99349.14;105816;1254;60500;-71
2023/04/26 08:11:09;;;;;;;4.40;1.90;;;;;;;16.63;40.86;99348.36;105626;1254;60450;-70
2023/04/26 08:13:37;;;;;;;4.50;2.20;;;;;;;16.60;41.05;99346.92;105679;1260;66611;-71
2023/04/26 08:16:06;;;;;;;7.00;3.60;;;;;;;16.69;41.90;99350.16;105590;1257;60614;-70
2023/04/26 08:18:32;;;;;;;8.80;2.80;;;;;;;16.88;41.49;99347.51;105627;1257;66590;-71
2023/04/26 08:21:00;;;;;;;6.00;2.10;;;;;;;17.04;41.18;99348.02;105613;1257;60552;-70
2023/04/26 08:23:30;;;;;;;4.70;2.10;;;;;;;17.15;40.59;99348.70;105649;1260;60588;-72
2023/04/26 08:25:57;;;;;;;6.30;2.10;;;;;;;17.21;40.12;99347.70;105737;1254;67819;-71
2023/04/26 08:28:24;;;;;;;5.50;2.10;;;;;;;17.24;40.30;99344.94;105750;1257;60533;-72
2023/04/26 08:30:51;;;;;;;6.80;2.50;;;;;;;17.26;40.00;99346.38;105710;1254;66691;-72
2023/04/26 08:33:18;;;;;;;5.00;2.10;;;;;;;17.22;40.26;99344.14;105591;1257;60456;-71
2023/04/26 08:35:46;;;;;;;9.20;2.70;;;;;;;17.18;40.58;99342.33;105593;1254;60536;-71
2023/04/26 08:38:13;;;;;;;6.10;2.40;;;;;;;17.20;40.83;99339.61;105649;1255;67692;-72
2023/04/26 08:40:40;;;;;;;9.30;2.40;;;;;;;17.27;41.12;99337.34;105613;1254;60600;-70
2023/04/26 08:43:07;;;;;;;8.30;2.70;;;;;;;17.38;41.35;99337.04;105668;1261;66650;-71
2023/04/26 08:45:34;;;;;;;6.70;2.30;;;;;;;17.48;39.85;99333.84;105646;1254;60569;-69
2023/04/26 08:48:03;;;;;;;10.00;2.70;;;;;;;17.52;39.40;99329.56;105656;1261;60487;-70
2023/04/26 08:50:32;;;;;;;7.90;2.50;;;;;;;17.54;39.28;99328.05;105677;1255;67319;-71
2023/04/26 08:52:59;;;;;;;5.90;2.30;;;;;;;17.53;39.02;99327.19;105645;1260;60440;-71
2023/04/26 08:55:26;;;;;;;12.40;2.20;;;;;;;17.47;39.07;99323.60;105753;1258;66562;-72
2023/04/26 08:57:52;;;;;;;9.90;2.40;;;;;;;17.45;39.23;99326.98;105472;1260;60453;-71
2023/04/26 09:00:20;;;;;;;6.20;2.40;;;;;;;17.52;39.84;99323.32;105569;1255;60403;-75
2023/04/26 09:02:52;;;;;;;3.70;1.90;;;;;;;17.71;40.13;99324.41;105699;1254;66588;-71
2023/04/26 09:05:23;;;;;;;7.20;2.30;;;;;;;17.92;39.92;99323.42;105747;1258;60649;-72
2023/04/26 09:07:52;;;;;;;6.70;2.10;;;;;;;18.07;39.63;99319.79;105734;1254;66939;-72
2023/04/26 09:10:20;;;;;;;2.10;1.40;;;;;;;18.18;39.25;99317.10;105488;1260;60508;-71
2023/04/26 09:12:52;;;;;;;3.80;1.80;;;;;;;18.35;38.12;99315.10;105522;1263;60403;-73
2023/04/26 09:15:21;;;;;;;4.80;2.00;;;;;;;18.51;37.30;99311.10;105653;1254;66370;-73
2023/04/26 09:17:51;;;;;;;5.50;1.90;;;;;;;18.66;37.40;99305.46;105604;1254;60523;-71
2023/04/26 09:20:26;;;;;;;3.80;1.60;;;;;;;18.89;37.80;99304.19;105805;1254;66428;-70
2023/04/26 09:23:03;;;;;;;4.80;1.80;;;;;;;19.18;37.64;99303.02;105814;1254;60432;-75
2023/04/26 09:25:30;;;;;;;3.10;1.90;;;;;;;19.39;37.19;99300.87;106636;1259;59305;-72
2023/04/26 09:27:59;;;;;;;27.10;2.60;;;;;;;19.57;37.24;99298.72;105650;1260;67607;-73
2023/04/26 09:30:26;;;;;;;6.80;1.60;;;;;;;19.75;37.28;99297.98;105694;1260;60919;-70
2023/04/26 09:32:54;;;;;;;2.80;1.60;;;;;;;19.91;36.75;99296.86;105566;1254;65438;-72
2023/04/26 09:35:38;;;;;;;6.30;1.90;;;;;;;19.98;36.58;99294.87;105744;1254;60453;-70
2023/04/26 09:38:04;;;;;;;5.80;1.40;;;;;;;20.06;36.59;99290.23;105562;1254;60518;-70
2023/04/26 09:40:41;;;;;;;3.40;1.80;;;;;;;20.19;36.66;99298.98;106081;1259;67702;-70
2023/04/26 09:43:12;;;;;;;4.60;2.20;;;;;;;20.32;36.42;99301.02;105347;1260;60719;-68
2023/04/26 09:45:52;;;;;;;6.20;2.60;;;;;;;20.31;36.37;99299.61;105260;1254;66152;-70
2023/04/26 09:48:31;;;;;;;3.60;2.20;;;;;;;20.27;36.35;99299.14;106042;1254;60452;-77
2023/04/26 09:51:01;;;;;;;4.90;2.10;;;;;;;20.20;36.32;99301.55;106180;1260;60341;-78
2023/04/26 09:53:40;;;;;;;6.20;2.30;;;;;;;20.10;36.52;99300.88;106551;1254;66789;-74
2023/04/26 09:56:10;;;;;;;4.10;2.20;;;;;;;19.98;36.70;99304.85;105832;1254;60585;-74
2023/04/26 09:58:57;;;;;;;4.10;2.20;;;;;;;19.86;36.59;99308.63;105942;1257;65466;-73
2023/04/26 10:01:25;;;;;;;6.50;2.20;;;;;;;19.73;37.27;99302.98;105811;1254;60533;-71
2023/04/26 10:03:52;;;;;;;6.20;2.40;;;;;;;19.67;37.89;99306.64;107074;1259;60383;-70
2023/04/26 10:06:19;;;;;;;4.40;2.20;;;;;;;19.66;37.60;99309.73;105764;1255;66750;-71
2023/04/26 10:08:46;;;;;;;6.60;2.40;;;;;;;19.61;37.53;99309.28;105763;1260;60577;-71
2023/04/26 10:11:13;;;;;;;4.50;2.50;;;;;;;19.50;38.03;99313.49;105638;1253;66384;-70
2023/04/26 10:13:40;;;;;;;20.40;2.70;;;;;;;19.40;38.48;99317.35;105660;1254;60544;-69
2023/04/26 10:16:08;;;;;;;7.10;2.30;;;;;;;19.25;39.06;99327.35;105620;1254;60428;-70
2023/04/26 10:18:36;;;;;;;7.80;2.80;;;;;;;19.06;39.67;99329.20;105651;1254;68149;-68
2023/04/26 10:21:12;;;;;;;8.70;2.40;;;;;;;18.88;40.24;99327.20;105695;1259;60529;-69
2023/04/26 10:23:38;;;;;;;4.50;2.30;;;;;;;18.70;40.59;99339.58;105681;1260;66548;-70
2023/04/26 10:26:06;;;;;;;4.40;2.70;;;;;;;18.52;41.38;99344.02;105616;1260;60473;-69
2023/04/26 10:28:40;;;;;;;7.10;2.90;;;;;;;18.32;43.35;99345.23;105734;1260;60527;-70
2023/04/26 10:31:07;;;;;;;4.70;2.60;;;;;;;18.00;44.98;99349.09;105695;1254;66711;-70
2023/04/26 10:33:33;;;;;;;7.40;2.70;;;;;;;17.66;46.79;99357.14;105673;1254;60821;-70
2023/04/26 10:36:11;;;;;;;4.60;2.70;;;;;;;17.33;48.38;99359.56;105664;1257;65589;-71
2023/04/26 10:38:39;;;;;;;7.50;2.80;;;;;;;17.00;50.22;99360.80;105530;1254;60494;-71
2023/04/26 10:41:31;;;;;;;6.00;3.00;;;;;;;16.74;51.22;99358.41;105761;1254;60427;-70
2023/04/26 10:44:00;;;;;;;6.80;2.80;;;;;;;16.55;52.53;99352.35;105743;1254;67440;-71
2023/04/26 10:46:38;;;;;;;6.30;3.30;;;;;;;16.41;53.37;99356.51;105631;1254;60940;-71
2023/04/26 10:49:15;;;;;;;6.30;3.20;;;;;;;16.30;53.99;99354.46;105803;1254;65557;-70
2023/04/26 10:52:13;;;;;;;5.00;3.10;;;;;;;16.22;54.49;99360.91;105722;1261;60549;-71
2023/04/26 10:54:59;;;;;;;4.90;3.40;;;;;;;16.14;55.09;99362.80;105650;1257;60462;-71
2023/04/26 10:57:49;;;;;;;4.30;3.20;;;;;;;16.06;55.74;99361.61;105647;1254;66772;-70
2023/04/26 11:00:24;;;;;;;6.50;3.40;;;;;;;16.02;56.15;99363.33;105663;1254;60398;-70
2023/04/26 11:03:07;;;;;;;5.20;3.60;;;;;;;16.04;56.62;99355.65;105461;1254;66600;-70
2023/04/26 11:05:35;;;;;;;6.00;3.80;;;;;;;16.12;57.10;99355.63;105625;1254;60463;-70
2023/04/26 11:08:24;;;;;;;5.80;3.80;;;;;;;16.24;57.57;99352.88;105666;1254;60562;-70
2023/04/26 11:11:12;;;;;;;4.00;3.30;;;;;;;16.46;57.43;99345.67;105737;1255;66614;-69
2023/04/26 11:13:42;;;;;;;4.60;3.60;;;;;;;16.72;56.86;99342.52;105696;1257;60657;-71
2023/04/26 11:16:13;;;;;;;4.40;3.50;;;;;;;16.96;56.62;99343.28;105654;1254;66310;-69
2023/04/26 11:18:42;;;;;;;4.00;3.20;;;;;;;17.14;55.79;99341.06;105670;1257;60556;-70
2023/04/26 11:21:09;;;;;;;4.20;3.10;;;;;;;17.27;54.44;99340.41;105759;1260;60360;-70
2023/04/26 11:23:36;;;;;;;5.50;3.30;;;;;;;17.32;53.87;99341.45;106140;1254;66394;-71
2023/04/26 11:26:05;;;;;;;4.90;3.10;;;;;;;17.33;52.96;99343.02;105665;1258;61261;-72
2023/04/26 11:28:33;;;;;;;5.00;3.20;;;;;;;17.35;53.33;99338.85;105777;1254;66479;-70
2023/04/26 11:31:02;;;;;;;5.30;3.10;;;;;;;17.44;53.36;99336.80;105728;1254;60596;-70
2023/04/26 11:33:30;;;;;;;5.30;3.50;;;;;;;17.55;53.09;99337.68;105688;1258;60498;-71
2023/04/26 11:35:57;;;;;;;4.50;3.30;;;;;;;17.69;53.19;99337.00;105628;1260;75854;-70
2023/04/26 11:38:25;;;;;;;5.50;3.20;;;;;;;17.85;52.84;99332.91;105666;1259;60405;-76
2023/04/26 11:40:54;;;;;;;4.50;3.00;;;;;;;17.97;51.80;99331.52;105692;1254;65559;-71
2023/04/26 11:43:21;;;;;;;3.50;2.80;;;;;;;18.06;51.48;99324.59;106131;1255;60471;-71
2023/04/26 11:45:48;;;;;;;5.70;2.90;;;;;;;18.18;51.27;99324.27;105864;1254;60553;-72
2023/04/26 11:48:15;;;;;;;6.20;2.90;;;;;;;18.30;50.54;99328.40;105701;1253;66533;-70